Time;durP1;ratioP1;P1;durP2;ratioP2;P2;SDS_P1;SDS_P2;PMS_P1;PMS_P2;Temp;Humidity;BMP_temperature;BMP_pressure;BME280_temperature;BME280_humidity;BME280_pressure;Samples;Min_cycle;Max_cycle;Signal;HPM_P1;HPM_P2
2023/07/11 00:00:14;;;;;;;3.70;0.73;;;17.30;99.90;;;;;;4976467;28;20051;-73
2023/07/11 00:02:42;;;;;;;2.67;0.70;;;17.20;99.90;;;;;;4977884;28;20228;-73
2023/07/11 00:05:08;;;;;;;4.47;1.23;;;17.30;99.90;;;;;;4977184;28;20438;-73
2023/07/11 00:07:34;;;;;;;4.75;1.00;;;17.20;99.90;;;;;;4961408;28;20058;-73
2023/07/11 00:09:59;;;;;;;4.20;0.90;;;17.20;99.90;;;;;;4976819;28;20057;-72
2023/07/11 00:12:28;;;;;;;4.50;1.00;;;17.30;99.90;;;;;;4958439;28;20050;-72
2023/07/11 00:14:56;;;;;;;6.60;1.20;;;17.30;99.90;;;;;;4991324;28;20046;-73
2023/07/11 00:17:22;;;;;;;5.68;1.20;;;17.30;99.90;;;;;;4976323;28;20054;-74
2023/07/11 00:19:52;;;;;;;3.28;0.88;;;17.30;99.90;;;;;;4975275;28;20057;-73
2023/07/11 00:22:18;;;;;;;6.00;0.85;;;17.30;99.90;;;;;;4976106;28;20073;-75
2023/07/11 00:24:44;;;;;;;7.53;1.15;;;17.30;99.90;;;;;;4976474;28;20046;-74
2023/07/11 00:27:11;;;;;;;6.10;1.45;;;17.20;99.90;;;;;;4976085;28;20208;-73
2023/07/11 00:29:38;;;;;;;3.78;1.10;;;17.20;99.90;;;;;;4977261;28;20038;-72
2023/07/11 00:32:04;;;;;;;5.95;1.25;;;17.10;99.90;;;;;;4991641;28;20123;-72
2023/07/11 00:34:30;;;;;;;3.50;1.00;;;17.10;99.90;;;;;;4975227;28;20129;-73
2023/07/11 00:36:56;;;;;;;3.75;1.20;;;17.10;99.90;;;;;;4976722;28;20128;-73
2023/07/11 00:39:22;;;;;;;5.28;1.15;;;17.00;99.90;;;;;;4975815;28;20595;-75
2023/07/11 00:41:47;;;;;;;6.32;1.13;;;17.00;99.90;;;;;;4980656;28;20031;-74
2023/07/11 00:44:15;;;;;;;7.13;1.38;;;17.00;99.90;;;;;;4980573;28;20065;-72
2023/07/11 00:46:41;;;;;;;5.88;1.30;;;17.00;99.90;;;;;;4981696;28;20065;-74
2023/07/11 00:49:10;;;;;;;4.38;1.40;;;17.00;99.90;;;;;;4981437;28;20445;-73
2023/07/11 00:51:46;;;;;;;4.78;1.00;;;17.10;99.90;;;;;;4982100;28;20042;-72
2023/07/11 00:54:15;;;;;;;6.15;1.10;;;17.00;99.90;;;;;;4981470;28;20046;-74
2023/07/11 00:56:45;;;;;;;4.25;1.25;;;17.10;99.90;;;;;;4980011;28;20048;-75
2023/07/11 00:59:12;;;;;;;5.75;1.10;;;17.10;99.90;;;;;;4977201;28;20181;-73
2023/07/11 01:01:38;;;;;;;5.68;0.90;;;17.00;99.90;;;;;;4991387;28;20059;-73
2023/07/11 01:04:05;;;;;;;4.72;1.00;;;17.10;99.90;;;;;;4977451;28;20042;-74
2023/07/11 01:06:32;;;;;;;4.18;0.82;;;17.10;99.90;;;;;;4978883;28;20093;-73
2023/07/11 01:09:00;;;;;;;4.43;1.00;;;17.10;99.90;;;;;;4981291;28;20038;-73
2023/07/11 01:11:28;;;;;;;5.85;1.10;;;17.20;99.90;;;;;;4996323;28;20065;-72
2023/07/11 01:13:54;;;;;;;3.17;0.80;;;17.20;99.90;;;;;;4980416;28;20519;-72
2023/07/11 01:16:20;;;;;;;5.25;0.88;;;17.20;99.90;;;;;;4995852;28;20049;-72
2023/07/11 01:18:46;;;;;;;5.00;1.08;;;17.30;99.90;;;;;;4995501;28;20129;-72
2023/07/11 01:21:19;;;;;;;6.00;1.02;;;17.30;99.90;;;;;;4995115;28;20126;-75
2023/07/11 01:23:45;;;;;;;4.82;0.90;;;17.40;99.90;;;;;;4979614;28;20226;-72
2023/07/11 01:26:11;;;;;;;3.13;0.65;;;17.40;99.90;;;;;;4978817;28;20430;-73
2023/07/11 01:28:39;;;;;;;5.88;1.25;;;17.50;99.90;;;;;;4991372;28;20521;-74
2023/07/11 01:31:05;;;;;;;4.15;0.75;;;17.50;99.90;;;;;;4974351;28;20547;-72
2023/07/11 01:33:32;;;;;;;3.28;0.60;;;17.50;99.90;;;;;;4974216;28;20647;-71
2023/07/11 01:35:58;;;;;;;4.60;1.02;;;17.50;99.90;;;;;;4975863;28;20076;-71
2023/07/11 01:38:25;;;;;;;4.93;0.98;;;17.40;99.90;;;;;;4975517;28;20043;-74
2023/07/11 01:40:51;;;;;;;4.05;0.60;;;17.40;99.90;;;;;;4977267;28;20464;-72
2023/07/11 01:43:18;;;;;;;3.92;0.80;;;17.40;99.90;;;;;;4979038;28;20494;-72
2023/07/11 01:45:44;;;;;;;5.15;0.70;;;17.40;99.90;;;;;;4981767;28;20046;-72
2023/07/11 01:48:10;;;;;;;4.15;0.75;;;17.40;99.90;;;;;;4978874;28;20112;-73
2023/07/11 01:50:35;;;;;;;4.45;0.68;;;17.50;99.90;;;;;;4977291;28;20045;-73
2023/07/11 01:53:01;;;;;;;3.85;0.70;;;17.50;99.90;;;;;;4975203;28;20050;-76
2023/07/11 01:55:27;;;;;;;4.20;0.60;;;17.60;99.90;;;;;;4991486;28;20053;-73
2023/07/11 01:57:53;;;;;;;4.65;0.80;;;17.60;99.90;;;;;;4976988;28;20312;-73
2023/07/11 02:00:19;;;;;;;3.88;0.68;;;17.60;99.90;;;;;;4975353;28;20104;-72
2023/07/11 02:02:44;;;;;;;5.32;0.82;;;17.70;99.90;;;;;;4975086;28;20656;-73
2023/07/11 02:05:10;;;;;;;6.93;0.60;;;17.80;99.90;;;;;;4975859;28;20046;-73
2023/07/11 02:07:36;;;;;;;4.97;0.90;;;17.80;99.90;;;;;;4973371;28;20550;-73
2023/07/11 02:10:01;;;;;;;3.45;0.60;;;17.90;99.90;;;;;;4956512;28;20042;-73
2023/07/11 02:12:27;;;;;;;5.18;0.85;;;17.90;99.90;;;;;;4988552;28;20521;-73
2023/07/11 02:14:53;;;;;;;5.18;0.60;;;18.00;99.90;;;;;;4972781;28;20133;-73
2023/07/11 02:17:18;;;;;;;2.85;0.50;;;18.00;99.90;;;;;;4956793;28;20264;-73
2023/07/11 02:19:44;;;;;;;6.20;0.52;;;18.10;99.90;;;;;;4988705;28;20671;-73
2023/07/11 02:22:11;;;;;;;5.50;0.73;;;18.10;99.90;;;;;;4973539;28;20054;-72
2023/07/11 02:24:39;;;;;;;1.73;0.30;;;18.10;99.90;;;;;;4973488;28;20034;-73
2023/07/11 02:27:04;;;;;;;3.17;0.40;;;18.10;99.90;;;;;;4973227;28;20046;-73
2023/07/11 02:29:30;;;;;;;2.15;0.40;;;18.10;99.90;;;;;;4973615;28;20073;-72
2023/07/11 02:31:56;;;;;;;3.90;0.55;;;18.10;99.90;;;;;;4973665;28;20049;-74
2023/07/11 02:34:22;;;;;;;5.18;0.50;;;18.10;99.90;;;;;;4972453;28;20375;-73
2023/07/11 02:36:47;;;;;;;3.33;0.50;;;18.10;99.90;;;;;;4972603;28;20042;-74
2023/07/11 02:39:14;;;;;;;4.20;0.60;;;18.10;99.90;;;;;;4987864;28;20054;-73
2023/07/11 02:41:39;;;;;;;5.05;0.60;;;18.10;99.90;;;;;;4972216;28;20097;-73
2023/07/11 02:44:05;;;;;;;4.22;0.70;;;18.10;99.90;;;;;;4971600;28;20082;-72
2023/07/11 02:46:31;;;;;;;10.15;1.33;;;18.20;99.90;;;;;;4973292;28;20054;-72
2023/07/11 02:48:57;;;;;;;5.28;0.60;;;18.20;99.90;;;;;;4992045;28;20752;-73
2023/07/11 02:51:23;;;;;;;5.72;0.88;;;18.20;99.90;;;;;;4976217;28;20470;-73
2023/07/11 02:53:49;;;;;;;4.32;0.57;;;18.20;99.90;;;;;;4975240;28;20475;-73
2023/07/11 02:56:17;;;;;;;2.88;0.60;;;18.20;99.90;;;;;;4976728;28;20046;-71
2023/07/11 02:58:44;;;;;;;5.70;0.57;;;18.30;99.90;;;;;;4976961;28;20046;-72
2023/07/11 03:01:09;;;;;;;5.25;0.70;;;18.30;99.90;;;;;;4975529;28;20058;-72
2023/07/11 03:03:35;;;;;;;4.65;0.50;;;18.40;99.90;;;;;;4975907;28;20042;-73
2023/07/11 03:06:01;;;;;;;2.78;0.60;;;18.40;99.90;;;;;;4991839;28;20349;-73
2023/07/11 03:08:27;;;;;;;5.50;0.50;;;18.40;99.90;;;;;;4959786;28;20696;-74
2023/07/11 03:10:57;;;;;;;5.10;0.60;;;18.40;99.90;;;;;;4976986;28;20454;-73
2023/07/11 03:13:22;;;;;;;3.30;0.50;;;18.50;99.90;;;;;;4977065;28;20039;-72
2023/07/11 03:15:48;;;;;;;2.67;0.40;;;18.50;99.90;;;;;;4975452;28;20053;-73
2023/07/11 03:18:14;;;;;;;5.20;0.43;;;18.50;99.90;;;;;;4976549;28;20284;-72
2023/07/11 03:20:41;;;;;;;5.07;0.50;;;18.50;99.90;;;;;;4975664;28;20473;-73
2023/07/11 03:23:09;;;;;;;3.70;0.40;;;18.50;99.90;;;;;;4991531;28;20046;-72
2023/07/11 03:25:36;;;;;;;3.85;0.55;;;18.50;99.90;;;;;;4977027;28;20043;-73
2023/07/11 03:28:02;;;;;;;3.90;0.50;;;18.50;99.90;;;;;;4977849;28;20060;-73
2023/07/11 03:30:29;;;;;;;3.70;0.60;;;18.50;99.90;;;;;;4993530;28;20038;-73
2023/07/11 03:32:55;;;;;;;3.92;0.50;;;18.50;99.90;;;;;;4993322;28;20090;-73
2023/07/11 03:35:21;;;;;;;4.30;0.50;;;18.40;99.90;;;;;;4977952;28;20486;-71
2023/07/11 03:37:46;;;;;;;4.28;0.40;;;18.40;99.90;;;;;;4978980;28;20058;-77
2023/07/11 03:40:12;;;;;;;4.20;0.55;;;18.40;99.90;;;;;;4980527;28;20418;-74
2023/07/11 03:42:38;;;;;;;5.13;0.80;;;18.30;99.90;;;;;;4976373;28;20050;-73
2023/07/11 03:45:04;;;;;;;4.40;0.60;;;18.30;99.90;;;;;;4992143;28;20408;-72
2023/07/11 03:47:30;;;;;;;3.58;0.47;;;18.30;99.90;;;;;;4978459;28;20303;-73
2023/07/11 03:49:55;;;;;;;5.00;0.80;;;18.30;99.90;;;;;;4979883;28;20054;-72
2023/07/11 03:52:21;;;;;;;4.13;0.65;;;18.30;99.90;;;;;;4979464;28;20382;-73
2023/07/11 03:54:47;;;;;;;5.15;0.60;;;18.30;99.90;;;;;;4979570;28;20042;-71
2023/07/11 03:57:12;;;;;;;3.65;0.60;;;18.30;99.90;;;;;;4961340;28;20050;-75
2023/07/11 03:59:38;;;;;;;2.60;0.60;;;18.30;99.90;;;;;;4977722;28;20692;-73
2023/07/11 04:02:04;;;;;;;4.03;0.68;;;18.20;99.90;;;;;;4978896;28;20042;-72
2023/07/11 04:04:30;;;;;;;5.00;0.70;;;18.20;99.90;;;;;;4978727;28;20104;-73
2023/07/11 04:06:56;;;;;;;4.22;0.82;;;18.20;99.90;;;;;;4959739;28;20042;-73
2023/07/11 04:09:21;;;;;;;3.25;0.85;;;18.20;99.90;;;;;;4976736;28;20062;-72
2023/07/11 04:11:47;;;;;;;4.18;0.77;;;18.20;99.90;;;;;;4976898;28;20096;-75
2023/07/11 04:14:13;;;;;;;4.80;0.93;;;18.20;99.90;;;;;;4991901;28;20085;-75
2023/07/11 04:16:38;;;;;;;4.13;0.82;;;18.10;99.90;;;;;;4977347;28;20303;-74
2023/07/11 04:19:04;;;;;;;4.18;0.90;;;18.10;99.90;;;;;;4978208;28;20057;-73
2023/07/11 04:21:30;;;;;;;5.68;0.98;;;18.10;99.90;;;;;;4992768;28;20046;-73
2023/07/11 04:23:55;;;;;;;6.68;1.20;;;18.20;99.90;;;;;;4960197;28;20109;-72
2023/07/11 04:26:21;;;;;;;6.53;1.55;;;18.20;99.90;;;;;;4992896;28;20054;-74
2023/07/11 04:28:47;;;;;;;5.55;0.90;;;18.20;99.90;;;;;;4961904;28;20070;-72
2023/07/11 04:31:13;;;;;;;4.55;1.13;;;18.20;99.90;;;;;;4978768;28;20049;-74
2023/07/11 04:33:39;;;;;;;4.53;1.15;;;18.20;99.90;;;;;;4994713;28;20042;-72
2023/07/11 04:36:13;;;;;;;6.68;1.08;;;18.20;99.90;;;;;;4979102;28;20059;-75
2023/07/11 04:38:39;;;;;;;5.95;0.98;;;18.30;99.90;;;;;;4975194;28;20125;-74
2023/07/11 04:41:06;;;;;;;8.73;1.45;;;18.30;99.90;;;;;;4974559;28;20165;-73
2023/07/11 04:43:33;;;;;;;6.50;1.08;;;18.30;99.90;;;;;;4974402;28;20054;-72
2023/07/11 04:46:01;;;;;;;6.32;1.00;;;18.40;99.90;;;;;;4974382;28;20707;-73
2023/07/11 04:48:26;;;;;;;8.57;1.38;;;18.40;99.90;;;;;;4974938;28;20556;-73
2023/07/11 04:50:57;;;;;;;8.65;1.60;;;18.40;99.90;;;;;;4974708;28;20420;-73
2023/07/11 04:53:23;;;;;;;6.25;1.33;;;18.30;99.90;;;;;;4973865;28;20387;-72
2023/07/11 04:56:00;;;;;;;9.70;1.45;;;18.30;99.90;;;;;;4992026;28;20162;-72
2023/07/11 04:58:31;;;;;;;7.25;1.30;;;18.20;99.90;;;;;;4981098;28;20034;-73
2023/07/11 05:01:16;;;;;;;5.55;1.00;;;18.20;99.90;;;;;;4977165;28;20516;-74
2023/07/11 05:03:44;;;;;;;6.90;1.58;;;18.20;99.90;;;;;;4976230;28;20571;-72
2023/07/11 05:06:12;;;;;;;4.95;1.23;;;18.20;99.90;;;;;;4988907;28;20374;-73
2023/07/11 05:08:39;;;;;;;8.45;1.40;;;18.20;99.90;;;;;;4975049;28;20053;-75
2023/07/11 05:11:07;;;;;;;7.68;2.03;;;18.10;99.90;;;;;;4972977;28;20050;-75
2023/07/11 05:13:34;;;;;;;6.32;1.60;;;18.00;99.90;;;;;;4974034;28;20050;-72
2023/07/11 05:16:02;;;;;;;5.55;1.73;;;18.00;99.90;;;;;;4988541;28;20397;-73
2023/07/11 05:18:28;;;;;;;5.25;1.88;;;18.00;99.90;;;;;;4974242;28;20100;-75
2023/07/11 05:20:55;;;;;;;6.38;1.92;;;18.00;99.90;;;;;;4988875;28;20573;-74
2023/07/11 05:23:23;;;;;;;6.93;1.80;;;18.00;99.90;;;;;;4972072;28;20042;-75
2023/07/11 05:25:48;;;;;;;9.07;2.35;;;18.10;99.90;;;;;;4973622;28;20096;-72
2023/07/11 05:28:15;;;;;;;6.78;2.10;;;18.10;99.90;;;;;;4973962;28;20050;-73
2023/07/11 05:30:41;;;;;;;6.57;2.28;;;18.20;99.90;;;;;;4974014;28;20057;-73
2023/07/11 05:33:07;;;;;;;9.88;2.20;;;18.50;99.90;;;;;;4956040;28;20061;-72
2023/07/11 05:35:37;;;;;;;8.38;2.28;;;18.90;99.90;;;;;;4972619;28;20038;-72
2023/07/11 05:38:03;;;;;;;4.85;1.88;;;19.20;99.90;;;;;;4973464;28;20491;-73
2023/07/11 05:40:33;;;;;;;8.48;2.42;;;19.50;99.90;;;;;;4973549;28;20035;-73
2023/07/11 05:42:58;;;;;;;7.55;2.40;;;19.60;99.90;;;;;;4973548;28;20048;-74
2023/07/11 05:45:24;;;;;;;8.45;1.95;;;19.80;99.90;;;;;;4973427;28;20051;-74
2023/07/11 05:47:50;;;;;;;9.70;2.25;;;20.00;99.90;;;;;;4974648;28;20062;-74
2023/07/11 05:50:16;;;;;;;8.85;2.28;;;20.40;99.90;;;;;;4974047;28;20042;-73
2023/07/11 05:52:41;;;;;;;4.65;1.50;;;20.50;99.90;;;;;;4973419;28;20046;-73
2023/07/11 05:55:08;;;;;;;5.70;2.25;;;20.40;99.90;;;;;;4974339;28;20034;-73
2023/07/11 05:57:34;;;;;;;5.53;1.90;;;20.30;99.90;;;;;;4974511;28;20042;-75
2023/07/11 05:59:59;;;;;;;8.80;2.30;;;20.20;99.90;;;;;;4972926;28;20046;-73
2023/07/11 06:02:25;;;;;;;10.82;2.38;;;20.30;99.90;;;;;;4974318;28;20039;-74
2023/07/11 06:04:51;;;;;;;7.57;2.20;;;20.20;99.90;;;;;;4973957;28;20424;-73
2023/07/11 06:07:16;;;;;;;9.65;2.63;;;20.40;99.90;;;;;;4974594;28;20053;-73
2023/07/11 06:09:42;;;;;;;10.90;2.88;;;20.40;99.90;;;;;;4975157;28;20089;-75
2023/07/11 06:12:08;;;;;;;5.80;2.47;;;20.30;99.90;;;;;;4957097;28;20137;-76
2023/07/11 06:14:34;;;;;;;13.30;3.60;;;20.20;99.90;;;;;;4973032;28;20567;-76
2023/07/11 06:17:00;;;;;;;15.13;3.03;;;20.10;99.90;;;;;;4956800;28;20100;-74
2023/07/11 06:19:25;;;;;;;8.98;2.60;;;20.20;99.90;;;;;;4973022;28;20500;-74
2023/07/11 06:21:51;;;;;;;10.65;3.08;;;20.30;99.90;;;;;;4976102;28;20077;-73
2023/07/11 06:24:17;;;;;;;6.40;2.47;;;20.60;99.90;;;;;;4976456;28;20112;-73
2023/07/11 06:26:42;;;;;;;8.95;2.95;;;20.90;99.90;;;;;;4992158;28;20546;-76
2023/07/11 06:29:08;;;;;;;6.57;2.15;;;21.00;99.90;;;;;;4976933;28;21065;-73
2023/07/11 06:31:34;;;;;;;5.90;1.90;;;21.00;99.90;;;;;;4976941;28;20049;-73
2023/07/11 06:34:00;;;;;;;6.72;2.13;;;21.10;99.90;;;;;;4961537;28;20553;-74
2023/07/11 06:36:25;;;;;;;7.00;1.75;;;21.30;99.90;;;;;;4978729;28;20066;-74
2023/07/11 06:38:51;;;;;;;5.70;1.90;;;21.50;99.90;;;;;;4977976;28;20080;-74
2023/07/11 06:41:17;;;;;;;6.30;1.55;;;21.70;99.90;;;;;;4978221;28;20627;-74
2023/07/11 06:43:43;;;;;;;7.72;1.98;;;21.90;99.90;;;;;;4976384;28;20338;-74
2023/07/11 06:46:09;;;;;;;5.68;1.70;;;22.10;99.90;;;;;;4978404;28;20093;-76
2023/07/11 06:48:35;;;;;;;8.25;2.05;;;22.20;99.90;;;;;;4977160;28;20062;-74
2023/07/11 06:51:02;;;;;;;4.18;1.63;;;22.20;99.90;;;;;;4981400;28;20506;-73
2023/07/11 06:53:31;;;;;;;5.63;1.80;;;22.30;99.90;;;;;;4994205;28;20050;-72
2023/07/11 06:55:57;;;;;;;6.05;1.73;;;22.30;99.90;;;;;;4993601;28;20457;-74
2023/07/11 06:58:23;;;;;;;5.30;1.60;;;22.70;99.90;;;;;;4977754;28;20073;-76
2023/07/11 07:00:58;;;;;;;6.47;1.77;;;22.80;86.80;;;;;;4977496;28;20212;-76
2023/07/11 07:03:24;;;;;;;6.13;2.20;;;23.10;88.40;;;;;;4978144;28;20136;-74
2023/07/11 07:05:56;;;;;;;4.93;1.48;;;23.30;90.10;;;;;;4977361;28;20057;-74
2023/07/11 07:08:23;;;;;;;6.40;2.20;;;23.50;84.60;;;;;;4994919;28;20038;-74
2023/07/11 07:10:50;;;;;;;10.80;1.95;;;23.60;61.40;;;;;;4980895;28;20078;-74
2023/07/11 07:13:17;;;;;;;9.00;1.70;;;23.70;66.20;;;;;;4979625;28;20295;-74
2023/07/11 07:15:53;;;;;;;6.93;1.73;;;23.80;62.30;;;;;;4982180;28;20046;-74
2023/07/11 07:18:20;;;;;;;3.00;0.95;;;23.70;48.50;;;;;;4975129;28;20065;-74
2023/07/11 07:20:47;;;;;;;4.57;1.55;;;23.50;41.30;;;;;;4976692;28;20371;-73
2023/07/11 07:23:14;;;;;;;4.93;1.17;;;23.40;43.90;;;;;;4974252;28;20050;-74
2023/07/11 07:25:40;;;;;;;4.63;1.50;;;23.40;46.00;;;;;;4991125;28;20042;-74
2023/07/11 07:28:07;;;;;;;6.57;1.20;;;23.60;53.10;;;;;;4975040;28;20701;-76
2023/07/11 07:30:34;;;;;;;4.38;1.00;;;23.80;46.40;;;;;;4974394;28;20155;-73
2023/07/11 07:33:01;;;;;;;5.53;1.38;;;24.00;43.30;;;;;;4975197;28;20094;-74
2023/07/11 07:35:26;;;;;;;4.72;1.20;;;23.80;27.90;;;;;;4975003;28;20054;-74
2023/07/11 07:37:52;;;;;;;6.85;1.40;;;23.90;28.20;;;;;;4974861;28;20640;-73
2023/07/11 07:40:18;;;;;;;4.38;1.23;;;24.10;35.00;;;;;;4991311;28;20107;-73
2023/07/11 07:42:44;;;;;;;5.53;1.15;;;24.20;24.80;;;;;;4960544;28;20057;-74
2023/07/11 07:45:10;;;;;;;4.55;1.50;;;24.30;21.70;;;;;;4976391;28;20137;-75
2023/07/11 07:47:36;;;;;;;5.97;1.20;;;24.60;20.20;;;;;;4977296;28;20138;-74
2023/07/11 07:50:03;;;;;;;5.85;1.20;;;25.00;20.60;;;;;;4977133;28;20066;-73
2023/07/11 07:52:28;;;;;;;4.93;1.30;;;25.10;14.40;;;;;;4977410;28;20245;-76
2023/07/11 07:54:54;;;;;;;5.03;1.02;;;25.10;6.80;;;;;;4979004;28;20046;-74
2023/07/11 07:57:20;;;;;;;4.30;1.02;;;25.20;6.50;;;;;;4977792;28;20042;-76
2023/07/11 07:59:45;;;;;;;6.10;1.30;;;25.30;1.00;;;;;;4974748;28;20370;-74
2023/07/11 08:02:11;;;;;;;3.95;1.00;;;25.40;1.00;;;;;;4974082;28;20050;-73
2023/07/11 08:04:37;;;;;;;7.22;1.20;;;25.60;1.00;;;;;;4974539;28;20038;-77
2023/07/11 08:07:03;;;;;;;6.68;1.25;;;25.50;1.00;;;;;;4976129;28;20054;-74
2023/07/11 08:09:29;;;;;;;6.30;1.27;;;25.40;1.00;;;;;;4975812;28;20089;-72
2023/07/11 08:12:03;;;;;;;6.80;1.73;;;25.20;1.00;;;;;;4960781;28;20042;-74
2023/07/11 08:14:29;;;;;;;6.95;1.95;;;25.10;1.00;;;;;;4977806;28;20049;-74
2023/07/11 08:16:54;;;;;;;3.67;1.02;;;25.30;1.00;;;;;;4975333;28;20309;-72
2023/07/11 08:19:20;;;;;;;6.85;1.20;;;25.40;1.00;;;;;;4975788;28;20066;-73
2023/07/11 08:21:46;;;;;;;2.83;0.93;;;25.40;1.00;;;;;;4991062;28;20046;-73
2023/07/11 08:24:12;;;;;;;7.75;1.13;;;25.40;1.00;;;;;;4990830;28;20046;-75
2023/07/11 08:26:38;;;;;;;4.18;1.10;;;25.50;1.00;;;;;;4975165;28;20442;-73
2023/07/11 08:29:04;;;;;;;6.18;1.25;;;25.80;1.00;;;;;;4976818;28;20042;-74
2023/07/11 08:31:30;;;;;;;4.63;0.82;;;25.90;1.00;;;;;;4992893;28;20101;-74
2023/07/11 08:33:56;;;;;;;5.80;1.00;;;26.10;1.00;;;;;;4981776;28;20481;-76
2023/07/11 08:36:22;;;;;;;4.80;1.27;;;26.10;1.00;;;;;;4981226;28;20066;-74
2023/07/11 08:38:47;;;;;;;6.47;1.10;;;26.00;1.00;;;;;;4975864;28;20100;-75
2023/07/11 08:41:35;;;;;;;2.60;1.10;;;26.00;1.00;;;;;;4973912;28;20053;-75
2023/07/11 08:44:08;;;;;;;6.60;1.10;;;26.10;1.00;;;;;;4974359;28;20042;-76
2023/07/11 08:46:48;;;;;;;6.88;1.00;;;26.00;1.00;;;;;;4973879;28;20042;-74
2023/07/11 08:49:25;;;;;;;4.15;0.90;;;26.00;1.00;;;;;;4972842;28;20047;-75
2023/07/11 08:51:56;;;;;;;6.68;1.10;;;25.80;1.00;;;;;;4974820;28;20057;-72
2023/07/11 08:54:30;;;;;;;5.05;1.02;;;25.80;1.00;;;;;;4972871;28;20134;-73
2023/07/11 08:56:59;;;;;;;3.90;1.10;;;25.80;1.00;;;;;;4975019;28;20213;-74
2023/07/11 08:59:42;;;;;;;4.50;1.17;;;25.90;1.00;;;;;;4972657;28;20062;-75
2023/07/11 09:02:08;;;;;;;3.47;0.90;;;25.90;1.00;;;;;;4973871;28;20077;-75
2023/07/11 09:04:38;;;;;;;5.88;1.00;;;26.20;1.00;;;;;;4973920;28;20825;-75
2023/07/11 09:07:14;;;;;;;6.60;1.08;;;26.30;1.00;;;;;;4975067;28;20046;-73
2023/07/11 09:09:41;;;;;;;3.80;1.15;;;26.70;1.00;;;;;;4989942;28;20421;-75
2023/07/11 09:12:26;;;;;;;5.40;1.08;;;27.00;1.00;;;;;;4957234;28;20409;-74
2023/07/11 09:15:06;;;;;;;4.80;1.00;;;27.30;1.00;;;;;;4974493;28;20046;-74
2023/07/11 09:18:07;;;;;;;4.63;1.13;;;27.20;1.00;;;;;;4956893;28;20042;-76
2023/07/11 09:20:40;;;;;;;6.38;1.50;;;27.10;1.00;;;;;;4975101;28;20050;-75
2023/07/11 09:23:27;;;;;;;2.78;0.90;;;27.30;1.00;;;;;;4972643;28;20104;-74
2023/07/11 09:25:56;;;;;;;5.57;0.93;;;27.30;1.00;;;;;;4972868;28;20057;-74
2023/07/11 09:28:28;;;;;;;7.00;1.23;;;27.30;1.00;;;;;;4974897;28;20057;-76
2023/07/11 09:31:00;;;;;;;5.05;0.75;;;27.40;1.00;;;;;;4988709;28;20100;-75
2023/07/11 09:33:32;;;;;;;3.92;0.60;;;27.60;1.00;;;;;;4974327;28;20038;-76
2023/07/11 09:35:59;;;;;;;2.92;0.60;;;28.00;1.00;;;;;;4974225;28;20425;-74
2023/07/11 09:38:54;;;;;;;4.75;0.85;;;28.40;1.00;;;;;;4974557;28;20049;-76
2023/07/11 09:42:11;;;;;;;3.05;0.70;;;28.50;1.00;;;;;;4974509;28;20469;-74
2023/07/11 09:44:37;;;;;;;4.55;0.75;;;28.40;1.00;;;;;;4919856;28;20082;-75
2023/07/11 09:47:17;;;;;;;2.38;0.68;;;28.50;1.00;;;;;;4972953;28;20875;-75
2023/07/11 09:49:45;;;;;;;2.88;0.65;;;28.60;1.00;;;;;;4974767;28;20051;-74
2023/07/11 09:52:26;;;;;;;3.83;0.60;;;28.60;1.00;;;;;;4974738;28;20034;-77
2023/07/11 09:54:52;;;;;;;4.85;0.80;;;28.80;1.00;;;;;;4974089;28;20438;-75
2023/07/11 09:57:18;;;;;;;3.10;0.50;;;29.00;1.00;;;;;;4976679;28;20050;-74
2023/07/11 10:00:03;;;;;;;3.58;0.60;;;28.90;1.00;;;;;;4979945;28;20116;-75
2023/07/11 10:02:29;;;;;;;2.25;0.70;;;28.90;1.00;;;;;;4985012;28;20123;-75
2023/07/11 10:04:56;;;;;;;4.40;0.60;;;29.10;1.00;;;;;;4984794;28;20031;-74
2023/07/11 10:07:31;;;;;;;3.05;0.70;;;29.40;1.00;;;;;;4984099;28;20031;-75
2023/07/11 10:10:02;;;;;;;2.00;0.50;;;29.60;1.00;;;;;;4980673;28;20550;-73
2023/07/11 10:12:29;;;;;;;2.47;0.77;;;30.10;1.00;;;;;;4977386;28;20116;-74
2023/07/11 10:14:59;;;;;;;3.35;0.63;;;30.30;1.00;;;;;;4977557;28;20285;-74
2023/07/11 10:17:35;;;;;;;3.95;0.70;;;30.40;1.00;;;;;;4977727;28;20493;-76
2023/07/11 10:20:04;;;;;;;4.53;0.85;;;30.50;1.00;;;;;;4977959;28;20043;-75
2023/07/11 10:22:31;;;;;;;3.38;0.70;;;30.90;1.00;;;;;;4976600;28;20058;-76
2023/07/11 10:25:03;;;;;;;3.17;0.70;;;31.00;1.00;;;;;;4975957;28;20113;-74
2023/07/11 10:27:36;;;;;;;3.03;0.40;;;31.00;1.00;;;;;;4977463;28;20038;-75
2023/07/11 10:30:05;;;;;;;2.70;0.52;;;30.90;1.00;;;;;;4977896;28;20125;-74
2023/07/11 10:32:40;;;;;;;3.88;0.73;;;31.10;1.00;;;;;;4986339;28;20115;-74
2023/07/11 10:35:14;;;;;;;4.22;0.73;;;31.00;1.00;;;;;;4986913;28;20054;-74
2023/07/11 10:37:56;;;;;;;5.03;0.50;;;30.60;1.00;;;;;;4980243;28;20038;-74
2023/07/11 10:40:32;;;;;;;5.07;0.65;;;30.60;1.00;;;;;;4979645;28;20446;-76
2023/07/11 10:43:05;;;;;;;3.60;0.60;;;30.40;1.00;;;;;;4976530;28;20046;-74
2023/07/11 10:45:36;;;;;;;4.82;0.52;;;30.50;1.00;;;;;;4978048;28;20480;-77
2023/07/11 10:48:15;;;;;;;3.35;0.65;;;30.50;1.00;;;;;;4994504;28;20050;-75
2023/07/11 10:50:54;;;;;;;2.38;0.70;;;30.20;1.00;;;;;;4978618;28;20598;-74
2023/07/11 10:53:29;;;;;;;;;;;30.10;1.00;;;;;;4978367;28;20085;-73
2023/07/11 10:56:05;;;;;;;5.90;0.70;;;30.00;1.00;;;;;;4975868;28;19932;-73
2023/07/11 10:58:32;;;;;;;3.05;0.50;;;30.00;1.00;;;;;;4976240;28;20138;-75
2023/07/11 11:01:13;;;;;;;7.38;1.00;;;29.90;1.00;;;;;;4976946;28;20049;-77
2023/07/11 11:03:40;;;;;;;3.03;0.70;;;29.80;1.00;;;;;;4978962;28;20057;-75
2023/07/11 11:06:11;;;;;;;2.88;0.50;;;29.90;1.00;;;;;;4977471;28;20046;-75
2023/07/11 11:08:52;;;;;;;5.80;0.82;;;29.90;1.00;;;;;;4976253;28;20042;-76
2023/07/11 11:11:36;;;;;;;4.35;0.60;;;29.90;1.00;;;;;;4978347;28;20133;-76
2023/07/11 11:14:06;;;;;;;6.22;0.60;;;30.20;1.00;;;;;;4979433;28;20045;-73
2023/07/11 11:16:38;;;;;;;3.83;0.50;;;30.30;1.00;;;;;;4979440;28;20035;-74
2023/07/11 11:19:30;;;;;;;3.45;0.50;;;30.20;1.00;;;;;;4977348;28;20491;-75
2023/07/11 11:22:03;;;;;;;3.53;0.50;;;30.10;1.00;;;;;;4977539;28;20144;-74
2023/07/11 11:25:00;;;;;;;3.45;0.50;;;30.20;1.00;;;;;;4979648;28;20042;-75
2023/07/11 11:27:58;;;;;;;3.13;0.70;;;30.10;1.00;;;;;;4978708;28;20046;-73
2023/07/11 11:30:34;;;;;;;3.53;0.65;;;29.90;1.00;;;;;;4977405;28;20193;-73
2023/07/11 11:33:29;;;;;;;3.63;0.60;;;29.90;1.00;;;;;;4977441;28;20061;-76
2023/07/11 11:36:04;;;;;;;5.30;0.93;;;30.20;1.00;;;;;;4979098;28;20076;-77
2023/07/11 11:38:42;;;;;;;5.95;0.75;;;30.30;1.00;;;;;;4979078;28;20129;-76
2023/07/11 11:41:15;;;;;;;3.55;0.50;;;30.60;1.00;;;;;;4979197;28;20613;-77
2023/07/11 11:43:45;;;;;;;5.40;0.75;;;30.60;1.00;;;;;;4978900;28;20050;-76
2023/07/11 11:46:12;;;;;;;2.15;0.50;;;30.80;1.00;;;;;;4979228;28;20593;-75
2023/07/11 11:48:39;;;;;;;3.47;0.60;;;30.70;1.00;;;;;;4977164;28;20038;-77
2023/07/11 11:51:13;;;;;;;4.05;0.55;;;30.50;1.00;;;;;;4978442;28;20145;-75
2023/07/11 11:53:46;;;;;;;3.45;0.70;;;30.70;1.00;;;;;;4978516;28;20502;-75
2023/07/11 11:56:20;;;;;;;3.83;0.50;;;30.40;1.00;;;;;;4979490;28;20038;-76
2023/07/11 11:58:51;;;;;;;4.05;0.60;;;30.50;1.00;;;;;;4979059;28;20042;-77
2023/07/11 12:01:44;;;;;;;5.00;0.50;;;30.80;1.00;;;;;;4979062;28;20034;-76
2023/07/11 12:04:28;;;;;;;3.90;0.68;;;31.00;1.00;;;;;;4979128;28;20053;-77
2023/07/11 12:07:08;;;;;;;4.90;0.65;;;31.20;1.00;;;;;;4979453;28;20050;-74
2023/07/11 12:09:35;;;;;;;4.13;0.50;;;30.80;1.00;;;;;;4993443;28;20061;-75
2023/07/11 12:12:16;;;;;;;2.70;0.50;;;30.40;1.00;;;;;;4979352;28;20042;-74
2023/07/11 12:14:58;;;;;;;1.42;0.43;;;30.40;1.00;;;;;;4979358;28;20465;-73
2023/07/11 12:17:33;;;;;;;4.35;0.60;;;30.90;1.00;;;;;;4979148;28;20054;-75
2023/07/11 12:20:02;;;;;;;2.15;0.50;;;31.40;1.00;;;;;;4977259;28;20456;-76
2023/07/11 12:22:51;;;;;;;1.48;0.40;;;31.20;1.00;;;;;;4977919;28;20053;-74
2023/07/11 12:25:20;;;;;;;3.35;0.60;;;31.20;1.00;;;;;;4979094;28;20053;-75
2023/07/11 12:27:47;;;;;;;3.45;0.40;;;31.00;1.00;;;;;;4977434;28;20050;-74
2023/07/11 12:30:27;;;;;;;1.60;0.32;;;30.80;1.00;;;;;;4978345;28;20045;-76
2023/07/11 12:33:13;;;;;;;3.60;0.50;;;30.60;1.00;;;;;;4977985;28;20050;-75
2023/07/11 12:35:39;;;;;;;2.33;0.50;;;30.50;1.00;;;;;;4979484;28;20134;-76
2023/07/11 12:38:12;;;;;;;2.72;0.60;;;30.50;1.00;;;;;;4979381;28;20042;-74
2023/07/11 12:40:50;;;;;;;2.72;0.50;;;30.40;1.00;;;;;;4981125;28;20065;-73
2023/07/11 12:43:22;;;;;;;4.93;0.50;;;30.30;1.00;;;;;;4978825;28;20109;-75
2023/07/11 12:45:57;;;;;;;5.07;0.50;;;30.70;1.00;;;;;;4977617;28;20697;-73
2023/07/11 12:48:40;;;;;;;3.97;0.45;;;31.20;1.00;;;;;;4976506;28;20056;-74
2023/07/11 12:51:30;;;;;;;3.38;0.57;;;31.10;1.00;;;;;;4992804;28;20046;-75
2023/07/11 12:54:13;;;;;;;2.72;0.55;;;30.70;1.00;;;;;;4977399;28;20073;-74
2023/07/11 12:56:50;;;;;;;4.13;0.60;;;30.50;1.00;;;;;;4977823;28;20038;-73
2023/07/11 12:59:30;;;;;;;2.08;0.40;;;30.70;1.00;;;;;;4979176;28;20556;-76
2023/07/11 13:02:05;;;;;;;2.50;0.40;;;30.60;1.00;;;;;;4976402;28;20039;-74